NZQN (Queenstown International Airport)       Alliance Partner HUB      (ORBX NZSI)HUB DETAILS

 RUNWAY INFORMATION
Runway Number 05 Runway Length 0 ft Runway Width 0 ft
Runway Elevation 1160 ft Runway Displaced Threshold 0 ft Runway Surface UNK
Runway Number 23 Runway Length 0 ft Runway Width 0 ft
Runway Elevation 1171 ft Runway Displaced Threshold 0 ft Runway Surface UNK
Runway Number 05L Runway Length 2625 ft Runway Width 131 ft
Runway Elevation 0 ft Runway Displaced Threshold 0 ft Runway Surface GRS
Runway Number 23R Runway Length 2625 ft Runway Width 131 ft
Runway Elevation 0 ft Runway Displaced Threshold 0 ft Runway Surface GRS
Runway Number 05R Runway Length 6204 ft Runway Width 98 ft
Runway Elevation 1160 ft Runway Displaced Threshold 196 ft Runway Surface Asphalt
Runway Number 23L Runway Length 6204 ft Runway Width 98 ft
Runway Elevation 1171 ft Runway Displaced Threshold 171 ft Runway Surface Asphalt
Runway Number 14 Runway Length 3097 ft Runway Width 197 ft
Runway Elevation 1168 ft Runway Displaced Threshold 33 ft Runway Surface GRS
Runway Number 32 Runway Length 3097 ft Runway Width 197 ft
Runway Elevation 1159 ft Runway Displaced Threshold 66 ft Runway Surface GRS

  METAR AND TAF INFORMATION
METAR FOR NZQN
ADDS - METARS form results

(0658 UTC 20 April 2018)
Data provider: http://aviationweather.gov/adds/metars/
 
Forecast for: NZQN
Text: TAF NZQN 191739Z 1918/2012 24008KT 9999 -RA BKN050
Forecast period: 1800 UTC 19 April 2018 to 1200 UTC 20 April 2018
Forecast type: FROM: standard forecast or significant change
Winds: from the WSW (240 degrees) at 9 MPH (8 knots; 4.2 m/s)
Visibility: 6 or more miles (10+ km)
Ceiling: 5000 feet AGL
Clouds: broken clouds at 5000 feet AGL
Weather: -RA  (light rain)
Forecast for: NZQN
Text: TAF NZQN 191739Z 1918/2012 24008KT 9999 -RA BKN050
Forecast period: 1800 UTC 19 April 2018 to 1200 UTC 20 April 2018
Forecast type: FROM: standard forecast or significant change
Winds: from the WSW (240 degrees) at 9 MPH (8 knots; 4.2 m/s)
Visibility: 6 or more miles (10+ km)
Ceiling: 5000 feet AGL
Clouds: broken clouds at 5000 feet AGL
Weather: -RA  (light rain)
Forecast for: NZQN
Text: TAF NZQN 191739Z 1918/2012 24008KT 9999 -RA BKN050
Forecast period: 0100 to 1000 UTC 20 April 2018
Forecast type: TEMPORARY: The following changes expected for less than half the time period
Visibility: 4 miles (6 km)
Weather: RA  (rain)
Forecast for: NZQN
Text: TAF NZQN 191739Z 1918/2012 24008KT 9999 -RA BKN050
Forecast period: 0100 to 1000 UTC 20 April 2018
Forecast type: TEMPORARY: The following changes expected for less than half the time period
Visibility: 4 miles (6 km)
Weather: RA  (rain)

 AIRPORT FREQUENCIES
Type AFIS Name FIS Frequency 128 MHZ
Type APP Name APP Frequency 118.1 MHZ
Type ATIS Name ATIS Frequency 126.4 MHZ
Type CTAF Name CTAF Frequency 118.1 MHZ
Type GND Name GND Frequency 121.9 MHZ
Type TWR Name TWR Frequency 118.1 MHZ

 NEARBY NAVIGATION AIDS
Type VOR-DME Name Slope Hill Frequency 113600 KHZ



Powered by Virtual Airlines Manager